sensor_id;sensor_type;location;lat;lon;timestamp;temperature;humidity
22623;DHT22;11478;51.094;7.030;2023-06-22T00:01:31;19.00;99.90
22623;DHT22;11478;51.094;7.030;2023-06-22T00:04:09;19.00;99.90
22623;DHT22;11478;51.094;7.030;2023-06-22T00:06:35;19.00;99.90
22623;DHT22;11478;51.094;7.030;2023-06-22T00:09:19;19.00;99.90
22623;DHT22;11478;51.094;7.030;2023-06-22T00:11:50;19.00;99.90
22623;DHT22;11478;51.094;7.030;2023-06-22T00:14:16;19.10;99.90
22623;DHT22;11478;51.094;7.030;2023-06-22T00:16:47;19.10;99.90
22623;DHT22;11478;51.094;7.030;2023-06-22T00:19:15;19.10;99.90
22623;DHT22;11478;51.094;7.030;2023-06-22T00:21:41;19.10;99.90
22623;DHT22;11478;51.094;7.030;2023-06-22T00:24:08;19.10;99.90
22623;DHT22;11478;51.094;7.030;2023-06-22T00:26:42;19.10;99.90
22623;DHT22;11478;51.094;7.030;2023-06-22T00:29:08;19.10;99.90
22623;DHT22;11478;51.094;7.030;2023-06-22T00:31:36;19.10;99.90
22623;DHT22;11478;51.094;7.030;2023-06-22T00:34:02;19.10;99.90
22623;DHT22;11478;51.094;7.030;2023-06-22T00:36:42;19.10;99.90
22623;DHT22;11478;51.094;7.030;2023-06-22T00:39:08;19.10;99.90
22623;DHT22;11478;51.094;7.030;2023-06-22T00:41:44;19.10;99.90
22623;DHT22;11478;51.094;7.030;2023-06-22T00:44:10;19.10;99.90
22623;DHT22;11478;51.094;7.030;2023-06-22T00:46:47;19.10;99.90
22623;DHT22;11478;51.094;7.030;2023-06-22T00:49:13;19.10;99.90
22623;DHT22;11478;51.094;7.030;2023-06-22T00:51:46;19.10;99.90
22623;DHT22;11478;51.094;7.030;2023-06-22T00:54:13;19.10;99.90
22623;DHT22;11478;51.094;7.030;2023-06-22T00:56:41;19.10;99.90
22623;DHT22;11478;51.094;7.030;2023-06-22T00:59:11;19.10;99.90
22623;DHT22;11478;51.094;7.030;2023-06-22T01:01:56;19.10;99.90
22623;DHT22;11478;51.094;7.030;2023-06-22T01:04:26;19.10;99.90
22623;DHT22;11478;51.094;7.030;2023-06-22T01:07:25;19.10;99.90
22623;DHT22;11478;51.094;7.030;2023-06-22T01:16:29;19.10;99.90
22623;DHT22;11478;51.094;7.030;2023-06-22T01:22:07;19.20;99.90
22623;DHT22;11478;51.094;7.030;2023-06-22T01:30:52;19.10;99.90
22623;DHT22;11478;51.094;7.030;2023-06-22T01:33:35;19.20;99.90
22623;DHT22;11478;51.094;7.030;2023-06-22T01:36:03;19.20;99.90
22623;DHT22;11478;51.094;7.030;2023-06-22T01:38:38;19.10;99.90
22623;DHT22;11478;51.094;7.030;2023-06-22T01:41:10;19.10;99.90
22623;DHT22;11478;51.094;7.030;2023-06-22T01:43:39;19.10;99.90
22623;DHT22;11478;51.094;7.030;2023-06-22T01:46:14;19.00;99.90
22623;DHT22;11478;51.094;7.030;2023-06-22T01:48:41;19.10;99.90
22623;DHT22;11478;51.094;7.030;2023-06-22T01:51:36;19.00;99.90
22623;DHT22;11478;51.094;7.030;2023-06-22T01:54:06;19.00;99.90
22623;DHT22;11478;51.094;7.030;2023-06-22T01:56:48;19.00;99.90
22623;DHT22;11478;51.094;7.030;2023-06-22T01:59:20;18.90;99.90
22623;DHT22;11478;51.094;7.030;2023-06-22T02:02:16;18.90;99.90
22623;DHT22;11478;51.094;7.030;2023-06-22T02:10:35;18.80;99.90
22623;DHT22;11478;51.094;7.030;2023-06-22T02:13:06;18.80;99.90
22623;DHT22;11478;51.094;7.030;2023-06-22T02:15:46;18.70;99.90
22623;DHT22;11478;51.094;7.030;2023-06-22T02:18:13;18.70;99.90
22623;DHT22;11478;51.094;7.030;2023-06-22T02:20:40;18.70;99.90
22623;DHT22;11478;51.094;7.030;2023-06-22T02:23:07;18.60;99.90
22623;DHT22;11478;51.094;7.030;2023-06-22T02:25:35;18.60;99.90
22623;DHT22;11478;51.094;7.030;2023-06-22T02:28:02;18.50;99.90
22623;DHT22;11478;51.094;7.030;2023-06-22T02:30:38;18.50;99.90
22623;DHT22;11478;51.094;7.030;2023-06-22T02:33:04;18.50;99.90
22623;DHT22;11478;51.094;7.030;2023-06-22T02:35:51;18.40;99.90
22623;DHT22;11478;51.094;7.030;2023-06-22T02:38:17;18.40;99.90
22623;DHT22;11478;51.094;7.030;2023-06-22T02:40:51;18.40;99.90
22623;DHT22;11478;51.094;7.030;2023-06-22T02:43:17;18.40;99.90
22623;DHT22;11478;51.094;7.030;2023-06-22T02:45:43;18.30;99.90
22623;DHT22;11478;51.094;7.030;2023-06-22T02:48:10;18.30;99.90
22623;DHT22;11478;51.094;7.030;2023-06-22T02:50:39;18.30;99.90
22623;DHT22;11478;51.094;7.030;2023-06-22T02:53:05;18.30;99.90
22623;DHT22;11478;51.094;7.030;2023-06-22T02:55:31;18.30;99.90
22623;DHT22;11478;51.094;7.030;2023-06-22T02:57:57;18.20;99.90
22623;DHT22;11478;51.094;7.030;2023-06-22T03:00:25;18.20;99.90
22623;DHT22;11478;51.094;7.030;2023-06-22T03:02:56;18.20;99.90
22623;DHT22;11478;51.094;7.030;2023-06-22T03:05:23;18.10;99.90
22623;DHT22;11478;51.094;7.030;2023-06-22T03:07:49;18.10;99.90
22623;DHT22;11478;51.094;7.030;2023-06-22T03:10:16;18.10;99.90
22623;DHT22;11478;51.094;7.030;2023-06-22T03:12:42;18.10;99.90
22623;DHT22;11478;51.094;7.030;2023-06-22T03:15:10;18.10;99.90
22623;DHT22;11478;51.094;7.030;2023-06-22T03:17:37;18.10;99.90
22623;DHT22;11478;51.094;7.030;2023-06-22T03:20:06;18.10;99.90
22623;DHT22;11478;51.094;7.030;2023-06-22T03:22:39;18.10;99.90
22623;DHT22;11478;51.094;7.030;2023-06-22T03:25:05;18.00;99.90
22623;DHT22;11478;51.094;7.030;2023-06-22T03:27:40;18.10;99.90
22623;DHT22;11478;51.094;7.030;2023-06-22T03:30:08;18.10;99.90
22623;DHT22;11478;51.094;7.030;2023-06-22T03:32:34;18.10;99.90
22623;DHT22;11478;51.094;7.030;2023-06-22T03:35:00;18.10;99.90
22623;DHT22;11478;51.094;7.030;2023-06-22T03:37:30;18.10;99.90
22623;DHT22;11478;51.094;7.030;2023-06-22T03:39:56;18.00;99.90
22623;DHT22;11478;51.094;7.030;2023-06-22T03:42:24;18.10;99.90
22623;DHT22;11478;51.094;7.030;2023-06-22T03:44:50;18.10;99.90
22623;DHT22;11478;51.094;7.030;2023-06-22T03:47:18;18.10;99.90
22623;DHT22;11478;51.094;7.030;2023-06-22T03:49:44;18.10;99.90
22623;DHT22;11478;51.094;7.030;2023-06-22T03:52:16;18.10;99.90
22623;DHT22;11478;51.094;7.030;2023-06-22T03:54:42;18.10;99.90
22623;DHT22;11478;51.094;7.030;2023-06-22T03:57:21;18.10;99.90
22623;DHT22;11478;51.094;7.030;2023-06-22T03:59:47;18.10;99.90
22623;DHT22;11478;51.094;7.030;2023-06-22T04:02:14;18.20;99.90
22623;DHT22;11478;51.094;7.030;2023-06-22T04:04:40;18.20;99.90
22623;DHT22;11478;51.094;7.030;2023-06-22T04:07:12;18.20;99.90
22623;DHT22;11478;51.094;7.030;2023-06-22T04:09:38;18.20;99.90
22623;DHT22;11478;51.094;7.030;2023-06-22T04:12:04;18.20;99.90
22623;DHT22;11478;51.094;7.030;2023-06-22T04:14:30;18.20;99.90
22623;DHT22;11478;51.094;7.030;2023-06-22T04:16:58;18.20;99.90
22623;DHT22;11478;51.094;7.030;2023-06-22T04:19:25;18.20;99.90
22623;DHT22;11478;51.094;7.030;2023-06-22T04:21:53;18.30;99.90
22623;DHT22;11478;51.094;7.030;2023-06-22T04:24:29;18.30;99.90
22623;DHT22;11478;51.094;7.030;2023-06-22T04:26:56;18.30;99.90
22623;DHT22;11478;51.094;7.030;2023-06-22T04:29:21;18.30;99.90
22623;DHT22;11478;51.094;7.030;2023-06-22T04:31:54;18.30;99.90
22623;DHT22;11478;51.094;7.030;2023-06-22T04:34:29;18.40;99.90
22623;DHT22;11478;51.094;7.030;2023-06-22T04:36:55;18.40;99.90
22623;DHT22;11478;51.094;7.030;2023-06-22T04:39:28;18.40;99.90
22623;DHT22;11478;51.094;7.030;2023-06-22T04:41:58;18.40;99.90
22623;DHT22;11478;51.094;7.030;2023-06-22T04:44:27;18.50;99.90
22623;DHT22;11478;51.094;7.030;2023-06-22T04:46:58;18.50;99.90
22623;DHT22;11478;51.094;7.030;2023-06-22T04:49:42;18.60;99.90
22623;DHT22;11478;51.094;7.030;2023-06-22T04:52:11;18.60;99.90
22623;DHT22;11478;51.094;7.030;2023-06-22T04:54:41;18.60;99.90
22623;DHT22;11478;51.094;7.030;2023-06-22T04:57:13;18.60;99.90
22623;DHT22;11478;51.094;7.030;2023-06-22T04:59:45;18.60;99.90
22623;DHT22;11478;51.094;7.030;2023-06-22T05:02:11;18.60;99.90
22623;DHT22;11478;51.094;7.030;2023-06-22T05:04:39;18.60;99.90
22623;DHT22;11478;51.094;7.030;2023-06-22T05:07:05;18.70;99.90
22623;DHT22;11478;51.094;7.030;2023-06-22T05:09:31;18.70;99.90
22623;DHT22;11478;51.094;7.030;2023-06-22T05:12:06;18.70;99.90
22623;DHT22;11478;51.094;7.030;2023-06-22T05:14:33;18.80;99.90
22623;DHT22;11478;51.094;7.030;2023-06-22T05:16:59;18.80;99.90
22623;DHT22;11478;51.094;7.030;2023-06-22T05:19:29;18.90;99.90
22623;DHT22;11478;51.094;7.030;2023-06-22T05:22:03;18.90;99.90
22623;DHT22;11478;51.094;7.030;2023-06-22T05:24:29;18.90;99.90
22623;DHT22;11478;51.094;7.030;2023-06-22T05:27:14;18.90;99.90
22623;DHT22;11478;51.094;7.030;2023-06-22T05:29:40;19.00;99.90
22623;DHT22;11478;51.094;7.030;2023-06-22T05:32:06;19.00;99.90
22623;DHT22;11478;51.094;7.030;2023-06-22T05:34:32;19.10;99.90
22623;DHT22;11478;51.094;7.030;2023-06-22T05:37:02;19.10;99.90
22623;DHT22;11478;51.094;7.030;2023-06-22T05:39:28;19.10;99.90
22623;DHT22;11478;51.094;7.030;2023-06-22T05:42:00;19.20;99.90
22623;DHT22;11478;51.094;7.030;2023-06-22T05:44:28;19.20;99.90
22623;DHT22;11478;51.094;7.030;2023-06-22T05:46:55;19.20;99.90
22623;DHT22;11478;51.094;7.030;2023-06-22T05:49:21;19.20;99.90
22623;DHT22;11478;51.094;7.030;2023-06-22T05:51:48;19.30;99.90
22623;DHT22;11478;51.094;7.030;2023-06-22T05:54:19;19.30;99.90
22623;DHT22;11478;51.094;7.030;2023-06-22T05:56:55;19.30;99.90
22623;DHT22;11478;51.094;7.030;2023-06-22T05:59:21;19.30;99.90
22623;DHT22;11478;51.094;7.030;2023-06-22T06:01:59;19.30;99.90
22623;DHT22;11478;51.094;7.030;2023-06-22T06:04:25;19.30;99.90
22623;DHT22;11478;51.094;7.030;2023-06-22T06:06:54;19.30;99.90
22623;DHT22;11478;51.094;7.030;2023-06-22T06:09:20;19.30;99.90
22623;DHT22;11478;51.094;7.030;2023-06-22T06:11:46;19.30;99.90
22623;DHT22;11478;51.094;7.030;2023-06-22T06:14:34;19.20;99.90
22623;DHT22;11478;51.094;7.030;2023-06-22T06:17:47;19.20;99.90
22623;DHT22;11478;51.094;7.030;2023-06-22T06:20:14;19.30;99.90
22623;DHT22;11478;51.094;7.030;2023-06-22T06:22:40;19.30;99.90
22623;DHT22;11478;51.094;7.030;2023-06-22T06:25:16;19.30;99.90
22623;DHT22;11478;51.094;7.030;2023-06-22T06:27:48;19.30;99.90
22623;DHT22;11478;51.094;7.030;2023-06-22T06:30:15;19.30;99.90
22623;DHT22;11478;51.094;7.030;2023-06-22T06:32:42;19.40;99.90
22623;DHT22;11478;51.094;7.030;2023-06-22T06:35:09;19.40;99.90
22623;DHT22;11478;51.094;7.030;2023-06-22T06:37:37;19.40;99.90
22623;DHT22;11478;51.094;7.030;2023-06-22T06:40:08;19.50;99.90
22623;DHT22;11478;51.094;7.030;2023-06-22T06:42:41;19.50;99.90
22623;DHT22;11478;51.094;7.030;2023-06-22T06:45:35;19.70;99.90
22623;DHT22;11478;51.094;7.030;2023-06-22T06:48:07;19.80;99.90
22623;DHT22;11478;51.094;7.030;2023-06-22T06:50:34;20.00;99.90
22623;DHT22;11478;51.094;7.030;2023-06-22T06:53:04;20.20;99.90
22623;DHT22;11478;51.094;7.030;2023-06-22T06:55:39;20.30;99.90
22623;DHT22;11478;51.094;7.030;2023-06-22T06:58:07;20.50;99.90
22623;DHT22;11478;51.094;7.030;2023-06-22T07:00:40;20.60;99.90
22623;DHT22;11478;51.094;7.030;2023-06-22T07:03:14;20.70;99.90
22623;DHT22;11478;51.094;7.030;2023-06-22T07:05:46;20.80;99.90
22623;DHT22;11478;51.094;7.030;2023-06-22T07:08:17;20.90;99.90
22623;DHT22;11478;51.094;7.030;2023-06-22T07:10:45;21.00;99.90
22623;DHT22;11478;51.094;7.030;2023-06-22T07:13:14;21.10;99.90
22623;DHT22;11478;51.094;7.030;2023-06-22T07:15:40;21.20;99.90
22623;DHT22;11478;51.094;7.030;2023-06-22T07:18:14;21.40;99.90
22623;DHT22;11478;51.094;7.030;2023-06-22T07:20:45;21.50;99.90
22623;DHT22;11478;51.094;7.030;2023-06-22T07:23:17;21.60;99.90
22623;DHT22;11478;51.094;7.030;2023-06-22T07:25:46;21.70;99.90
22623;DHT22;11478;51.094;7.030;2023-06-22T07:28:15;21.80;99.90
22623;DHT22;11478;51.094;7.030;2023-06-22T07:30:44;21.90;99.90
22623;DHT22;11478;51.094;7.030;2023-06-22T07:33:33;22.00;99.90
22623;DHT22;11478;51.094;7.030;2023-06-22T07:35:59;22.10;99.90
22623;DHT22;11478;51.094;7.030;2023-06-22T07:38:26;22.20;99.90
22623;DHT22;11478;51.094;7.030;2023-06-22T07:40:52;22.20;99.90
22623;DHT22;11478;51.094;7.030;2023-06-22T07:43:23;22.40;99.90
22623;DHT22;11478;51.094;7.030;2023-06-22T07:45:49;22.50;99.90
22623;DHT22;11478;51.094;7.030;2023-06-22T07:48:32;22.60;99.90
22623;DHT22;11478;51.094;7.030;2023-06-22T07:50:58;22.60;99.90
22623;DHT22;11478;51.094;7.030;2023-06-22T07:53:24;22.60;99.90
22623;DHT22;11478;51.094;7.030;2023-06-22T07:55:53;22.70;99.90
22623;DHT22;11478;51.094;7.030;2023-06-22T07:58:21;22.70;99.90
22623;DHT22;11478;51.094;7.030;2023-06-22T08:00:47;22.80;99.90
22623;DHT22;11478;51.094;7.030;2023-06-22T08:03:23;22.90;99.90
22623;DHT22;11478;51.094;7.030;2023-06-22T08:05:51;23.10;99.90
22623;DHT22;11478;51.094;7.030;2023-06-22T08:11:26;23.40;99.90
22623;DHT22;11478;51.094;7.030;2023-06-22T08:13:54;23.60;99.90
22623;DHT22;11478;51.094;7.030;2023-06-22T08:16:21;23.70;99.90
22623;DHT22;11478;51.094;7.030;2023-06-22T08:18:50;23.80;99.90
22623;DHT22;11478;51.094;7.030;2023-06-22T08:21:28;24.00;99.90
22623;DHT22;11478;51.094;7.030;2023-06-22T08:23:54;24.10;99.90
22623;DHT22;11478;51.094;7.030;2023-06-22T08:26:21;24.30;99.90
22623;DHT22;11478;51.094;7.030;2023-06-22T08:28:50;24.50;99.90
22623;DHT22;11478;51.094;7.030;2023-06-22T08:31:17;24.70;99.90
22623;DHT22;11478;51.094;7.030;2023-06-22T08:33:43;24.90;99.90
22623;DHT22;11478;51.094;7.030;2023-06-22T08:36:21;25.00;99.90
22623;DHT22;11478;51.094;7.030;2023-06-22T08:38:51;25.00;99.90
22623;DHT22;11478;51.094;7.030;2023-06-22T08:41:29;25.10;99.90
22623;DHT22;11478;51.094;7.030;2023-06-22T08:43:58;25.10;99.90
22623;DHT22;11478;51.094;7.030;2023-06-22T08:46:32;25.10;99.90
22623;DHT22;11478;51.094;7.030;2023-06-22T08:49:02;25.10;99.90
22623;DHT22;11478;51.094;7.030;2023-06-22T08:51:33;25.20;99.90
22623;DHT22;11478;51.094;7.030;2023-06-22T08:53:59;25.20;99.90
22623;DHT22;11478;51.094;7.030;2023-06-22T08:56:34;25.30;99.90
22623;DHT22;11478;51.094;7.030;2023-06-22T08:59:05;25.40;99.90
22623;DHT22;11478;51.094;7.030;2023-06-22T09:01:44;25.50;99.90
22623;DHT22;11478;51.094;7.030;2023-06-22T09:04:14;25.60;99.90
22623;DHT22;11478;51.094;7.030;2023-06-22T09:06:41;25.70;99.90
22623;DHT22;11478;51.094;7.030;2023-06-22T09:09:12;25.80;99.90
22623;DHT22;11478;51.094;7.030;2023-06-22T09:11:58;25.90;99.90
22623;DHT22;11478;51.094;7.030;2023-06-22T09:14:24;25.90;99.90
22623;DHT22;11478;51.094;7.030;2023-06-22T09:16:56;26.00;99.90
22623;DHT22;11478;51.094;7.030;2023-06-22T09:19:36;26.00;99.90
22623;DHT22;11478;51.094;7.030;2023-06-22T09:22:06;26.00;99.90
22623;DHT22;11478;51.094;7.030;2023-06-22T09:24:36;26.00;99.90
22623;DHT22;11478;51.094;7.030;2023-06-22T09:27:02;26.00;99.90
22623;DHT22;11478;51.094;7.030;2023-06-22T09:29:56;26.00;99.90
22623;DHT22;11478;51.094;7.030;2023-06-22T09:32:27;26.00;99.90
22623;DHT22;11478;51.094;7.030;2023-06-22T09:35:05;25.90;99.90
22623;DHT22;11478;51.094;7.030;2023-06-22T09:37:41;25.90;99.90
22623;DHT22;11478;51.094;7.030;2023-06-22T09:40:12;25.90;99.90
22623;DHT22;11478;51.094;7.030;2023-06-22T09:42:39;26.00;99.90
22623;DHT22;11478;51.094;7.030;2023-06-22T09:45:27;26.10;99.90
22623;DHT22;11478;51.094;7.030;2023-06-22T09:47:58;26.20;99.90
22623;DHT22;11478;51.094;7.030;2023-06-22T09:50:29;26.20;99.90
22623;DHT22;11478;51.094;7.030;2023-06-22T09:52:55;26.30;99.90
22623;DHT22;11478;51.094;7.030;2023-06-22T09:55:33;26.30;99.90
22623;DHT22;11478;51.094;7.030;2023-06-22T09:57:59;26.30;99.90
22623;DHT22;11478;51.094;7.030;2023-06-22T10:00:34;26.30;99.90
22623;DHT22;11478;51.094;7.030;2023-06-22T10:03:00;26.30;99.90
22623;DHT22;11478;51.094;7.030;2023-06-22T10:05:29;26.30;99.90
22623;DHT22;11478;51.094;7.030;2023-06-22T10:07:55;26.30;99.90
22623;DHT22;11478;51.094;7.030;2023-06-22T10:10:29;26.30;99.90
22623;DHT22;11478;51.094;7.030;2023-06-22T10:13:07;26.30;99.90
22623;DHT22;11478;51.094;7.030;2023-06-22T10:15:43;26.30;99.90
22623;DHT22;11478;51.094;7.030;2023-06-22T10:18:39;26.30;99.90
22623;DHT22;11478;51.094;7.030;2023-06-22T10:21:05;26.20;99.90
22623;DHT22;11478;51.094;7.030;2023-06-22T10:23:31;26.10;99.90
22623;DHT22;11478;51.094;7.030;2023-06-22T10:26:03;26.10;99.90
22623;DHT22;11478;51.094;7.030;2023-06-22T10:28:47;26.00;99.90
22623;DHT22;11478;51.094;7.030;2023-06-22T10:31:13;25.80;99.90
22623;DHT22;11478;51.094;7.030;2023-06-22T10:33:47;25.70;99.90
22623;DHT22;11478;51.094;7.030;2023-06-22T10:36:13;25.50;99.90
22623;DHT22;11478;51.094;7.030;2023-06-22T10:38:41;25.30;99.90
22623;DHT22;11478;51.094;7.030;2023-06-22T10:41:07;25.10;99.90
22623;DHT22;11478;51.094;7.030;2023-06-22T10:43:40;24.90;99.90
22623;DHT22;11478;51.094;7.030;2023-06-22T10:46:48;24.50;99.90
22623;DHT22;11478;51.094;7.030;2023-06-22T10:49:34;24.20;99.90
22623;DHT22;11478;51.094;7.030;2023-06-22T10:52:02;23.80;99.90
22623;DHT22;11478;51.094;7.030;2023-06-22T10:54:34;23.60;99.90
22623;DHT22;11478;51.094;7.030;2023-06-22T10:57:00;23.30;99.90
22623;DHT22;11478;51.094;7.030;2023-06-22T10:59:35;23.10;99.90
22623;DHT22;11478;51.094;7.030;2023-06-22T11:02:01;22.90;99.90
22623;DHT22;11478;51.094;7.030;2023-06-22T11:04:49;22.70;99.90
22623;DHT22;11478;51.094;7.030;2023-06-22T11:10:40;22.40;99.90
22623;DHT22;11478;51.094;7.030;2023-06-22T11:16:49;22.20;99.90
22623;DHT22;11478;51.094;7.030;2023-06-22T11:19:37;22.00;99.90
22623;DHT22;11478;51.094;7.030;2023-06-22T11:22:06;21.90;99.90
22623;DHT22;11478;51.094;7.030;2023-06-22T11:24:39;21.90;99.90
22623;DHT22;11478;51.094;7.030;2023-06-22T11:37:11;21.60;99.90
22623;DHT22;11478;51.094;7.030;2023-06-22T11:39:38;21.60;99.90
22623;DHT22;11478;51.094;7.030;2023-06-22T11:42:19;21.50;99.90
22623;DHT22;11478;51.094;7.030;2023-06-22T11:44:45;21.50;99.90
22623;DHT22;11478;51.094;7.030;2023-06-22T11:47:38;21.50;99.90
22623;DHT22;11478;51.094;7.030;2023-06-22T11:50:45;21.50;99.90
22623;DHT22;11478;51.094;7.030;2023-06-22T11:53:12;21.50;99.90
22623;DHT22;11478;51.094;7.030;2023-06-22T11:56:15;21.50;99.90
22623;DHT22;11478;51.094;7.030;2023-06-22T12:02:21;21.50;99.90
22623;DHT22;11478;51.094;7.030;2023-06-22T12:05:11;21.40;99.90
22623;DHT22;11478;51.094;7.030;2023-06-22T12:07:43;21.30;99.90
22623;DHT22;11478;51.094;7.030;2023-06-22T12:10:39;21.20;99.90
22623;DHT22;11478;51.094;7.030;2023-06-22T12:16:34;21.10;99.90
22623;DHT22;11478;51.094;7.030;2023-06-22T12:21:30;21.20;99.90
22623;DHT22;11478;51.094;7.030;2023-06-22T12:24:03;21.20;99.90
22623;DHT22;11478;51.094;7.030;2023-06-22T12:26:52;21.30;99.90
22623;DHT22;11478;51.094;7.030;2023-06-22T12:29:32;21.40;99.90
22623;DHT22;11478;51.094;7.030;2023-06-22T12:32:47;21.60;99.90
22623;DHT22;11478;51.094;7.030;2023-06-22T12:35:12;21.60;99.90
22623;DHT22;11478;51.094;7.030;2023-06-22T12:37:42;21.60;99.90
22623;DHT22;11478;51.094;7.030;2023-06-22T12:40:11;21.60;99.90
22623;DHT22;11478;51.094;7.030;2023-06-22T12:42:49;21.60;99.90
22623;DHT22;11478;51.094;7.030;2023-06-22T12:45:15;21.60;99.90
22623;DHT22;11478;51.094;7.030;2023-06-22T12:47:45;21.60;99.90
22623;DHT22;11478;51.094;7.030;2023-06-22T12:50:15;21.70;99.90
22623;DHT22;11478;51.094;7.030;2023-06-22T12:52:44;21.90;99.90
22623;DHT22;11478;51.094;7.030;2023-06-22T12:55:16;22.00;99.90
22623;DHT22;11478;51.094;7.030;2023-06-22T12:57:43;22.10;99.90
22623;DHT22;11478;51.094;7.030;2023-06-22T13:00:12;22.20;99.90
22623;DHT22;11478;51.094;7.030;2023-06-22T13:02:39;22.30;99.90
22623;DHT22;11478;51.094;7.030;2023-06-22T13:05:08;22.20;99.90
22623;DHT22;11478;51.094;7.030;2023-06-22T13:07:40;22.20;99.90
22623;DHT22;11478;51.094;7.030;2023-06-22T13:10:08;22.20;99.90
22623;DHT22;11478;51.094;7.030;2023-06-22T13:12:40;22.20;99.90
22623;DHT22;11478;51.094;7.030;2023-06-22T13:15:12;22.30;99.90
22623;DHT22;11478;51.094;7.030;2023-06-22T13:17:44;22.30;99.90
22623;DHT22;11478;51.094;7.030;2023-06-22T13:20:14;22.40;99.90
22623;DHT22;11478;51.094;7.030;2023-06-22T13:22:40;22.50;99.90
22623;DHT22;11478;51.094;7.030;2023-06-22T13:25:14;22.60;99.90
22623;DHT22;11478;51.094;7.030;2023-06-22T13:27:52;22.70;99.90
22623;DHT22;11478;51.094;7.030;2023-06-22T13:30:35;22.70;99.90
22623;DHT22;11478;51.094;7.030;2023-06-22T13:33:09;22.60;99.90
22623;DHT22;11478;51.094;7.030;2023-06-22T13:35:35;22.60;99.90
22623;DHT22;11478;51.094;7.030;2023-06-22T13:38:08;22.60;99.90
22623;DHT22;11478;51.094;7.030;2023-06-22T13:40:35;22.70;99.90
22623;DHT22;11478;51.094;7.030;2023-06-22T13:43:09;22.70;99.90
22623;DHT22;11478;51.094;7.030;2023-06-22T13:45:35;22.70;99.90
22623;DHT22;11478;51.094;7.030;2023-06-22T13:48:09;22.80;99.90
22623;DHT22;11478;51.094;7.030;2023-06-22T13:50:35;22.80;99.90
22623;DHT22;11478;51.094;7.030;2023-06-22T13:53:14;22.90;99.90
22623;DHT22;11478;51.094;7.030;2023-06-22T13:55:40;23.00;99.90
22623;DHT22;11478;51.094;7.030;2023-06-22T13:58:16;23.00;99.90
22623;DHT22;11478;51.094;7.030;2023-06-22T14:00:42;23.00;99.90
22623;DHT22;11478;51.094;7.030;2023-06-22T14:03:08;22.90;99.90
22623;DHT22;11478;51.094;7.030;2023-06-22T14:05:34;22.90;99.90
22623;DHT22;11478;51.094;7.030;2023-06-22T14:08:08;22.80;99.90
22623;DHT22;11478;51.094;7.030;2023-06-22T14:10:37;22.80;99.90
22623;DHT22;11478;51.094;7.030;2023-06-22T14:13:03;22.80;99.90
22623;DHT22;11478;51.094;7.030;2023-06-22T14:15:35;22.80;99.90
22623;DHT22;11478;51.094;7.030;2023-06-22T14:18:04;22.80;99.90
22623;DHT22;11478;51.094;7.030;2023-06-22T14:20:40;22.70;99.90
22623;DHT22;11478;51.094;7.030;2023-06-22T14:23:06;22.60;99.90
22623;DHT22;11478;51.094;7.030;2023-06-22T14:25:39;22.60;99.90
22623;DHT22;11478;51.094;7.030;2023-06-22T14:28:07;22.60;99.90
22623;DHT22;11478;51.094;7.030;2023-06-22T14:30:41;22.60;99.90
22623;DHT22;11478;51.094;7.030;2023-06-22T14:33:07;22.60;99.90
22623;DHT22;11478;51.094;7.030;2023-06-22T14:35:38;22.60;99.90
22623;DHT22;11478;51.094;7.030;2023-06-22T14:38:07;22.60;99.90
22623;DHT22;11478;51.094;7.030;2023-06-22T14:40:44;22.60;99.90
22623;DHT22;11478;51.094;7.030;2023-06-22T14:43:10;22.70;99.90
22623;DHT22;11478;51.094;7.030;2023-06-22T14:45:42;22.70;99.90
22623;DHT22;11478;51.094;7.030;2023-06-22T14:48:08;22.70;99.90
22623;DHT22;11478;51.094;7.030;2023-06-22T14:50:36;22.70;99.90
22623;DHT22;11478;51.094;7.030;2023-06-22T14:53:11;22.60;99.90
22623;DHT22;11478;51.094;7.030;2023-06-22T14:55:55;22.60;99.90
22623;DHT22;11478;51.094;7.030;2023-06-22T14:58:21;22.50;99.90
22623;DHT22;11478;51.094;7.030;2023-06-22T15:00:49;22.40;99.90
22623;DHT22;11478;51.094;7.030;2023-06-22T15:03:17;22.40;99.90
22623;DHT22;11478;51.094;7.030;2023-06-22T15:05:50;22.30;99.90
22623;DHT22;11478;51.094;7.030;2023-06-22T15:08:16;22.30;99.90
22623;DHT22;11478;51.094;7.030;2023-06-22T15:11:18;22.20;99.90
22623;DHT22;11478;51.094;7.030;2023-06-22T15:13:46;22.20;99.90
22623;DHT22;11478;51.094;7.030;2023-06-22T15:17:27;22.10;99.90
22623;DHT22;11478;51.094;7.030;2023-06-22T15:19:39;22.00;99.90
22623;DHT22;11478;51.094;7.030;2023-06-22T15:22:20;21.80;99.90
22623;DHT22;11478;51.094;7.030;2023-06-22T15:24:49;21.60;99.90
22623;DHT22;11478;51.094;7.030;2023-06-22T15:27:15;21.40;99.90
22623;DHT22;11478;51.094;7.030;2023-06-22T15:29:47;21.30;99.90
22623;DHT22;11478;51.094;7.030;2023-06-22T15:32:15;21.20;99.90
22623;DHT22;11478;51.094;7.030;2023-06-22T15:34:41;21.10;99.90
22623;DHT22;11478;51.094;7.030;2023-06-22T15:37:19;21.00;99.90
22623;DHT22;11478;51.094;7.030;2023-06-22T15:39:45;20.90;99.90
22623;DHT22;11478;51.094;7.030;2023-06-22T15:42:21;20.80;99.90
22623;DHT22;11478;51.094;7.030;2023-06-22T15:44:47;20.80;99.90
22623;DHT22;11478;51.094;7.030;2023-06-22T15:47:14;20.70;99.90
22623;DHT22;11478;51.094;7.030;2023-06-22T15:49:40;20.70;99.90
22623;DHT22;11478;51.094;7.030;2023-06-22T15:52:09;20.60;99.90
22623;DHT22;11478;51.094;7.030;2023-06-22T15:54:35;20.60;99.90
22623;DHT22;11478;51.094;7.030;2023-06-22T15:57:01;20.60;99.90
22623;DHT22;11478;51.094;7.030;2023-06-22T15:59:27;20.50;99.90
22623;DHT22;11478;51.094;7.030;2023-06-22T16:01:53;20.50;99.90
22623;DHT22;11478;51.094;7.030;2023-06-22T16:04:23;20.50;99.90
22623;DHT22;11478;51.094;7.030;2023-06-22T16:06:50;20.50;99.90
22623;DHT22;11478;51.094;7.030;2023-06-22T16:09:16;20.50;99.90
22623;DHT22;11478;51.094;7.030;2023-06-22T16:11:49;20.50;99.90
22623;DHT22;11478;51.094;7.030;2023-06-22T16:14:18;20.50;99.90
22623;DHT22;11478;51.094;7.030;2023-06-22T16:16:49;20.40;99.90
22623;DHT22;11478;51.094;7.030;2023-06-22T16:19:15;20.40;99.90
22623;DHT22;11478;51.094;7.030;2023-06-22T16:21:41;20.30;99.90
22623;DHT22;11478;51.094;7.030;2023-06-22T16:24:07;20.40;99.90
22623;DHT22;11478;51.094;7.030;2023-06-22T16:26:42;20.40;99.90
22623;DHT22;11478;51.094;7.030;2023-06-22T16:29:09;20.40;99.90
22623;DHT22;11478;51.094;7.030;2023-06-22T16:31:36;20.30;99.90
22623;DHT22;11478;51.094;7.030;2023-06-22T16:34:02;20.40;99.90
22623;DHT22;11478;51.094;7.030;2023-06-22T16:36:29;20.30;99.90
22623;DHT22;11478;51.094;7.030;2023-06-22T16:39:03;20.40;99.90
22623;DHT22;11478;51.094;7.030;2023-06-22T16:41:30;20.30;99.90
22623;DHT22;11478;51.094;7.030;2023-06-22T16:44:03;20.30;99.90
22623;DHT22;11478;51.094;7.030;2023-06-22T16:46:34;20.30;99.90
22623;DHT22;11478;51.094;7.030;2023-06-22T16:49:00;20.30;99.90